sensor_id;sensor_type;location;lat;lon;timestamp;pressure;altitude;pressure_sealevel;temperature;humidity
68075;BME280;54864;52.002;5.468;2022-11-13T00:00:41;102623.88;;;9.86;70.51
68075;BME280;54864;52.002;5.468;2022-11-13T00:01:45;102622.13;;;9.85;70.82
68075;BME280;54864;52.002;5.468;2022-11-13T00:02:52;102612.59;;;9.73;71.07
68075;BME280;54864;52.002;5.468;2022-11-13T00:04:05;102616.09;;;9.77;70.99
68075;BME280;54864;52.002;5.468;2022-11-13T00:05:09;102610.84;;;9.72;71.23
68075;BME280;54864;52.002;5.468;2022-11-13T00:07:14;102607.34;;;9.73;71.19
68075;BME280;54864;52.002;5.468;2022-11-13T00:08:24;102611.72;;;9.76;71.20
68075;BME280;54864;52.002;5.468;2022-11-13T00:09:29;102608.16;;;9.78;71.02
68075;BME280;54864;52.002;5.468;2022-11-13T00:10:35;102604.69;;;9.75;71.35
68075;BME280;54864;52.002;5.468;2022-11-13T00:11:38;102610.84;;;9.74;71.40
68075;BME280;54864;52.002;5.468;2022-11-13T00:12:56;102617.03;;;9.70;71.77
68075;BME280;54864;52.002;5.468;2022-11-13T00:15:23;102616.09;;;9.74;71.30
68075;BME280;54864;52.002;5.468;2022-11-13T00:16:27;102604.69;;;9.73;71.11
68075;BME280;54864;52.002;5.468;2022-11-13T00:17:36;102610.91;;;9.69;70.87
68075;BME280;54864;52.002;5.468;2022-11-13T00:18:38;102603.81;;;9.74;70.80
68075;BME280;54864;52.002;5.468;2022-11-13T00:19:44;102603.88;;;9.68;71.44
68075;BME280;54864;52.002;5.468;2022-11-13T00:20:49;102603.00;;;9.68;70.80
68075;BME280;54864;52.002;5.468;2022-11-13T00:21:51;102603.00;;;9.68;70.82
68075;BME280;54864;52.002;5.468;2022-11-13T00:23:06;102602.97;;;9.71;70.88
68075;BME280;54864;52.002;5.468;2022-11-13T00:24:11;102596.84;;;9.69;70.77
68075;BME280;54864;52.002;5.468;2022-11-13T00:25:18;102586.44;;;9.60;71.14
68075;BME280;54864;52.002;5.468;2022-11-13T00:26:24;102588.13;;;9.65;71.23
68075;BME280;54864;52.002;5.468;2022-11-13T00:27:31;102594.25;;;9.67;70.83
68075;BME280;54864;52.002;5.468;2022-11-13T00:28:35;102593.31;;;9.70;71.34
68075;BME280;54864;52.002;5.468;2022-11-13T00:29:48;102590.66;;;9.73;71.17
68075;BME280;54864;52.002;5.468;2022-11-13T00:30:50;102587.16;;;9.71;70.98
68075;BME280;54864;52.002;5.468;2022-11-13T00:32:07;102588.09;;;9.67;71.17
68075;BME280;54864;52.002;5.468;2022-11-13T00:33:11;102589.06;;;9.61;70.71
68075;BME280;54864;52.002;5.468;2022-11-13T00:34:12;102583.81;;;9.60;71.33
68075;BME280;54864;52.002;5.468;2022-11-13T00:35:21;102581.22;;;9.57;71.17
68075;BME280;54864;52.002;5.468;2022-11-13T00:36:31;102590.00;;;9.57;70.86
68075;BME280;54864;52.002;5.468;2022-11-13T00:37:37;102580.31;;;9.58;71.42
68075;BME280;54864;52.002;5.468;2022-11-13T00:38:45;102582.06;;;9.59;70.75
68075;BME280;54864;52.002;5.468;2022-11-13T00:39:51;102582.16;;;9.51;70.99
68075;BME280;54864;52.002;5.468;2022-11-13T00:40:56;102576.00;;;9.53;70.96
68075;BME280;54864;52.002;5.468;2022-11-13T00:41:59;102576.84;;;9.56;71.22
68075;BME280;54864;52.002;5.468;2022-11-13T00:43:00;102575.06;;;9.56;71.50
68075;BME280;54864;52.002;5.468;2022-11-13T00:44:02;102575.97;;;9.55;71.18
68075;BME280;54864;52.002;5.468;2022-11-13T00:45:13;102579.50;;;9.54;71.05
68075;BME280;54864;52.002;5.468;2022-11-13T00:46:20;102582.97;;;9.58;71.59
68075;BME280;54864;52.002;5.468;2022-11-13T00:47:24;102576.06;;;9.49;71.29
68075;BME280;54864;52.002;5.468;2022-11-13T00:48:30;102581.28;;;9.50;71.04
68075;BME280;54864;52.002;5.468;2022-11-13T00:49:36;102568.28;;;9.40;71.47
68075;BME280;54864;52.002;5.468;2022-11-13T00:50:50;102580.47;;;9.45;71.49
68075;BME280;54864;52.002;5.468;2022-11-13T00:51:55;102576.19;;;9.38;71.97
68075;BME280;54864;52.002;5.468;2022-11-13T00:54:35;102566.47;;;9.43;71.23
68075;BME280;54864;52.002;5.468;2022-11-13T00:55:47;102563.16;;;9.28;72.26
68075;BME280;54864;52.002;5.468;2022-11-13T00:56:51;102558.66;;;9.37;72.09
68075;BME280;54864;52.002;5.468;2022-11-13T00:57:57;102559.53;;;9.36;71.96
68075;BME280;54864;52.002;5.468;2022-11-13T00:59:01;102560.47;;;9.32;71.87
68075;BME280;54864;52.002;5.468;2022-11-13T01:00:17;102558.56;;;9.43;72.34
68075;BME280;54864;52.002;5.468;2022-11-13T01:01:22;102561.34;;;9.31;72.52
68075;BME280;54864;52.002;5.468;2022-11-13T01:02:25;102553.44;;;9.34;72.64
68075;BME280;54864;52.002;5.468;2022-11-13T01:03:28;102549.91;;;9.35;72.42
68075;BME280;54864;52.002;5.468;2022-11-13T01:04:37;102549.91;;;9.35;72.38
68075;BME280;54864;52.002;5.468;2022-11-13T01:05:46;102559.50;;;9.39;72.07
68075;BME280;54864;52.002;5.468;2022-11-13T01:06:47;102556.84;;;9.41;71.92
68075;BME280;54864;52.002;5.468;2022-11-13T01:07:52;102558.59;;;9.42;71.54
68075;BME280;54864;52.002;5.468;2022-11-13T01:09:02;102558.59;;;9.42;71.45
68075;BME280;54864;52.002;5.468;2022-11-13T01:10:07;102558.59;;;9.42;71.76
68075;BME280;54864;52.002;5.468;2022-11-13T01:11:25;102564.66;;;9.47;71.54
68075;BME280;54864;52.002;5.468;2022-11-13T01:12:45;102562.06;;;9.44;71.73
68075;BME280;54864;52.002;5.468;2022-11-13T01:13:52;102564.78;;;9.38;71.89
68075;BME280;54864;52.002;5.468;2022-11-13T01:15:08;102575.28;;;9.39;71.71
68075;BME280;54864;52.002;5.468;2022-11-13T01:16:16;102574.47;;;9.36;72.09
68075;BME280;54864;52.002;5.468;2022-11-13T01:17:24;102570.19;;;9.27;72.35
68075;BME280;54864;52.002;5.468;2022-11-13T01:18:26;102573.66;;;9.31;72.45
68075;BME280;54864;52.002;5.468;2022-11-13T01:19:31;102565.69;;;9.37;72.22
68075;BME280;54864;52.002;5.468;2022-11-13T01:20:38;102574.44;;;9.37;72.31
68075;BME280;54864;52.002;5.468;2022-11-13T01:21:43;102566.53;;;9.37;72.13
68075;BME280;54864;52.002;5.468;2022-11-13T01:22:49;102562.19;;;9.35;72.42
68075;BME280;54864;52.002;5.468;2022-11-13T01:23:52;102559.72;;;9.21;72.94
68075;BME280;54864;52.002;5.468;2022-11-13T01:24:58;102550.09;;;9.20;72.64
68075;BME280;54864;52.002;5.468;2022-11-13T01:26:12;102563.13;;;9.31;72.15
68075;BME280;54864;52.002;5.468;2022-11-13T01:27:28;102557.84;;;9.32;72.28
68075;BME280;54864;52.002;5.468;2022-11-13T01:28:35;102554.38;;;9.29;71.98
68075;BME280;54864;52.002;5.468;2022-11-13T01:29:43;102558.72;;;9.31;72.38
68075;BME280;54864;52.002;5.468;2022-11-13T01:30:50;102559.69;;;9.26;72.35
68075;BME280;54864;52.002;5.468;2022-11-13T01:31:57;102556.97;;;9.30;71.45
68075;BME280;54864;52.002;5.468;2022-11-13T01:33:00;102555.25;;;9.29;72.14
68075;BME280;54864;52.002;5.468;2022-11-13T01:34:07;102556.97;;;9.32;71.36
68075;BME280;54864;52.002;5.468;2022-11-13T01:35:11;102545.59;;;9.30;71.99
68075;BME280;54864;52.002;5.468;2022-11-13T01:36:19;102543.06;;;9.20;71.79
68075;BME280;54864;52.002;5.468;2022-11-13T01:37:32;102550.03;;;9.25;71.42
68075;BME280;54864;52.002;5.468;2022-11-13T01:38:34;102557.06;;;9.23;71.98
68075;BME280;54864;52.002;5.468;2022-11-13T01:40:12;102552.72;;;9.20;71.57
68075;BME280;54864;52.002;5.468;2022-11-13T01:41:28;102548.34;;;9.19;71.64
68075;BME280;54864;52.002;5.468;2022-11-13T01:42:35;102545.72;;;9.19;72.13
68075;BME280;54864;52.002;5.468;2022-11-13T01:43:43;102544.84;;;9.18;71.35
68075;BME280;54864;52.002;5.468;2022-11-13T01:44:50;102545.81;;;9.11;71.69
68075;BME280;54864;52.002;5.468;2022-11-13T01:46:29;102543.16;;;9.10;71.58
68075;BME280;54864;52.002;5.468;2022-11-13T01:47:42;102541.38;;;9.15;71.99
68075;BME280;54864;52.002;5.468;2022-11-13T01:48:52;102544.06;;;9.12;71.52
68075;BME280;54864;52.002;5.468;2022-11-13T01:50:13;102536.97;;;9.17;71.60
68075;BME280;54864;52.002;5.468;2022-11-13T01:51:26;102538.00;;;9.01;72.51
68075;BME280;54864;52.002;5.468;2022-11-13T01:52:42;102532.66;;;9.08;72.24
68075;BME280;54864;52.002;5.468;2022-11-13T01:53:46;102534.41;;;9.09;71.96
68075;BME280;54864;52.002;5.468;2022-11-13T01:54:56;102529.13;;;9.09;71.90
68075;BME280;54864;52.002;5.468;2022-11-13T01:56:07;102532.69;;;9.05;71.51
68075;BME280;54864;52.002;5.468;2022-11-13T02:00:13;102514.34;;;9.01;72.19
68075;BME280;54864;52.002;5.468;2022-11-13T02:01:19;102516.97;;;8.99;72.33
68075;BME280;54864;52.002;5.468;2022-11-13T02:02:23;102505.59;;;8.97;72.11
68075;BME280;54864;52.002;5.468;2022-11-13T02:03:31;102514.38;;;8.96;72.56
68075;BME280;54864;52.002;5.468;2022-11-13T02:04:33;102508.22;;;8.99;72.26
68075;BME280;54864;52.002;5.468;2022-11-13T02:05:39;102512.53;;;9.04;72.74
68075;BME280;54864;52.002;5.468;2022-11-13T02:06:56;102510.91;;;8.94;72.71
68075;BME280;54864;52.002;5.468;2022-11-13T02:08:09;102507.38;;;8.97;72.21
68075;BME280;54864;52.002;5.468;2022-11-13T02:09:13;102506.47;;;8.98;72.39
68075;BME280;54864;52.002;5.468;2022-11-13T02:10:39;102505.69;;;8.91;72.05
68075;BME280;54864;52.002;5.468;2022-11-13T02:11:43;102506.69;;;8.79;73.82
68075;BME280;54864;52.002;5.468;2022-11-13T02:12:48;102505.72;;;8.86;73.54
68075;BME280;54864;52.002;5.468;2022-11-13T02:14:12;102492.50;;;8.93;73.03
68075;BME280;54864;52.002;5.468;2022-11-13T02:15:28;102500.41;;;8.91;72.17
68075;BME280;54864;52.002;5.468;2022-11-13T02:16:50;102499.50;;;8.94;72.54
68075;BME280;54864;52.002;5.468;2022-11-13T02:18:01;102501.31;;;8.88;72.27
68075;BME280;54864;52.002;5.468;2022-11-13T02:19:27;102492.53;;;8.89;72.16
68075;BME280;54864;52.002;5.468;2022-11-13T02:20:45;102491.66;;;8.90;72.60
68075;BME280;54864;52.002;5.468;2022-11-13T02:22:06;102491.84;;;8.75;72.79
68075;BME280;54864;52.002;5.468;2022-11-13T02:23:39;102488.25;;;8.81;72.91
68075;BME280;54864;52.002;5.468;2022-11-13T02:25:03;102486.50;;;8.81;72.86
68075;BME280;54864;52.002;5.468;2022-11-13T02:26:12;102490.84;;;8.85;72.49
68075;BME280;54864;52.002;5.468;2022-11-13T02:27:23;102484.72;;;8.83;72.97
68075;BME280;54864;52.002;5.468;2022-11-13T02:28:41;102484.66;;;8.89;72.87
68075;BME280;54864;52.002;5.468;2022-11-13T02:29:45;102484.69;;;8.86;73.04
68075;BME280;54864;52.002;5.468;2022-11-13T02:30:56;102485.50;;;8.92;72.27
68075;BME280;54864;52.002;5.468;2022-11-13T02:31:58;102485.63;;;8.82;72.74
68075;BME280;54864;52.002;5.468;2022-11-13T02:33:23;102485.59;;;8.85;72.63
68075;BME280;54864;52.002;5.468;2022-11-13T02:34:28;102480.34;;;8.84;72.65
68075;BME280;54864;52.002;5.468;2022-11-13T02:35:40;102471.56;;;8.83;72.57
68075;BME280;54864;52.002;5.468;2022-11-13T02:36:43;102475.94;;;8.86;72.48
68075;BME280;54864;52.002;5.468;2022-11-13T02:38:01;102475.03;;;8.87;72.11
68075;BME280;54864;52.002;5.468;2022-11-13T02:39:11;102464.56;;;8.84;72.44
68075;BME280;54864;52.002;5.468;2022-11-13T02:40:20;102471.50;;;8.89;72.42
68075;BME280;54864;52.002;5.468;2022-11-13T02:41:38;102475.06;;;8.84;72.34
68075;BME280;54864;52.002;5.468;2022-11-13T02:42:49;102465.41;;;8.86;71.88
68075;BME280;54864;52.002;5.468;2022-11-13T02:43:50;102462.81;;;8.84;71.94
68075;BME280;54864;52.002;5.468;2022-11-13T02:44:58;102471.59;;;8.82;72.44
68075;BME280;54864;52.002;5.468;2022-11-13T02:46:03;102464.50;;;8.88;71.94
68075;BME280;54864;52.002;5.468;2022-11-13T02:47:05;102465.34;;;8.90;71.90
68075;BME280;54864;52.002;5.468;2022-11-13T02:48:07;102462.69;;;8.94;72.30
68075;BME280;54864;52.002;5.468;2022-11-13T02:49:11;102461.00;;;8.88;72.01
68075;BME280;54864;52.002;5.468;2022-11-13T02:50:19;102456.66;;;8.84;72.02
68075;BME280;54864;52.002;5.468;2022-11-13T02:51:25;102459.31;;;8.82;72.28
68075;BME280;54864;52.002;5.468;2022-11-13T02:52:33;102459.31;;;8.82;72.25
68075;BME280;54864;52.002;5.468;2022-11-13T02:53:37;102452.28;;;8.83;72.12
68075;BME280;54864;52.002;5.468;2022-11-13T02:54:38;102455.03;;;8.75;72.37
68075;BME280;54864;52.002;5.468;2022-11-13T02:55:50;102451.44;;;8.82;71.93
68075;BME280;54864;52.002;5.468;2022-11-13T02:58:13;102447.94;;;8.80;72.33
68075;BME280;54864;52.002;5.468;2022-11-13T02:59:18;102444.47;;;8.78;72.22
68075;BME280;54864;52.002;5.468;2022-11-13T03:00:19;102447.19;;;8.69;72.46
68075;BME280;54864;52.002;5.468;2022-11-13T03:01:26;102438.34;;;8.78;71.56
68075;BME280;54864;52.002;5.468;2022-11-13T03:02:27;102441.88;;;8.75;72.09
68075;BME280;54864;52.002;5.468;2022-11-13T03:03:31;102443.66;;;8.73;72.15
68075;BME280;54864;52.002;5.468;2022-11-13T03:04:33;102447.16;;;8.72;71.46
68075;BME280;54864;52.002;5.468;2022-11-13T03:05:41;102442.78;;;8.71;71.29
68075;BME280;54864;52.002;5.468;2022-11-13T03:06:43;102446.28;;;8.73;71.54
68075;BME280;54864;52.002;5.468;2022-11-13T03:07:51;102444.59;;;8.68;71.70
68075;BME280;54864;52.002;5.468;2022-11-13T03:10:12;102446.31;;;8.70;71.75
68075;BME280;54864;52.002;5.468;2022-11-13T03:11:28;102442.91;;;8.61;72.12
68075;BME280;54864;52.002;5.468;2022-11-13T03:12:33;102443.75;;;8.64;71.64
68075;BME280;54864;52.002;5.468;2022-11-13T03:13:36;102441.19;;;8.60;72.04
68075;BME280;54864;52.002;5.468;2022-11-13T03:14:41;102442.94;;;8.59;71.67
68075;BME280;54864;52.002;5.468;2022-11-13T03:15:54;102438.69;;;8.43;72.46
68075;BME280;54864;52.002;5.468;2022-11-13T03:16:55;102440.44;;;8.48;72.60
68075;BME280;54864;52.002;5.468;2022-11-13T03:18:02;102432.56;;;8.45;72.91
68075;BME280;54864;52.002;5.468;2022-11-13T03:19:08;102435.19;;;8.45;73.18
68075;BME280;54864;52.002;5.468;2022-11-13T03:20:19;102432.53;;;8.48;73.14
68075;BME280;54864;52.002;5.468;2022-11-13T03:21:23;102433.31;;;8.56;73.05
68075;BME280;54864;52.002;5.468;2022-11-13T03:22:34;102433.31;;;8.58;72.92
68075;BME280;54864;52.002;5.468;2022-11-13T03:23:38;102427.19;;;8.57;72.62
68075;BME280;54864;52.002;5.468;2022-11-13T03:24:44;102428.13;;;8.52;72.62
68075;BME280;54864;52.002;5.468;2022-11-13T03:25:48;102433.34;;;8.53;72.64
68075;BME280;54864;52.002;5.468;2022-11-13T03:26:54;102430.00;;;8.38;73.41
68075;BME280;54864;52.002;5.468;2022-11-13T03:27:58;102425.56;;;8.41;73.22
68075;BME280;54864;52.002;5.468;2022-11-13T03:29:03;102431.66;;;8.48;72.65
68075;BME280;54864;52.002;5.468;2022-11-13T03:30:10;102438.69;;;8.46;73.75
68075;BME280;54864;52.002;5.468;2022-11-13T03:31:17;102431.66;;;8.48;72.93
68075;BME280;54864;52.002;5.468;2022-11-13T03:32:18;102435.13;;;8.53;72.21
68075;BME280;54864;52.002;5.468;2022-11-13T03:33:24;102434.31;;;8.43;73.05
68075;BME280;54864;52.002;5.468;2022-11-13T03:34:26;102440.41;;;8.50;72.25
68075;BME280;54864;52.002;5.468;2022-11-13T03:35:29;102431.63;;;8.52;72.59
68075;BME280;54864;52.002;5.468;2022-11-13T03:36:34;102436.88;;;8.52;72.67
68075;BME280;54864;52.002;5.468;2022-11-13T03:37:35;102437.78;;;8.50;72.78
68075;BME280;54864;52.002;5.468;2022-11-13T03:38:42;102430.72;;;8.55;72.07
68075;BME280;54864;52.002;5.468;2022-11-13T03:39:44;102434.19;;;8.57;73.20
68075;BME280;54864;52.002;5.468;2022-11-13T03:40:58;102436.00;;;8.52;72.48
68075;BME280;54864;52.002;5.468;2022-11-13T03:43:30;102433.31;;;8.58;72.58
68075;BME280;54864;52.002;5.468;2022-11-13T03:44:37;102437.66;;;8.61;71.82
68075;BME280;54864;52.002;5.468;2022-11-13T03:45:40;102442.09;;;8.57;72.30
68075;BME280;54864;52.002;5.468;2022-11-13T03:46:47;102446.38;;;8.66;72.45
68075;BME280;54864;52.002;5.468;2022-11-13T03:47:51;102434.94;;;8.68;72.50
68075;BME280;54864;52.002;5.468;2022-11-13T03:48:57;102446.28;;;8.72;71.32
68075;BME280;54864;52.002;5.468;2022-11-13T03:49:58;102440.19;;;8.68;71.90
68075;BME280;54864;52.002;5.468;2022-11-13T03:51:11;102434.88;;;8.73;72.26
68075;BME280;54864;52.002;5.468;2022-11-13T03:52:18;102434.88;;;8.74;71.98
68075;BME280;54864;52.002;5.468;2022-11-13T03:54:52;102438.34;;;8.76;71.92
68075;BME280;54864;52.002;5.468;2022-11-13T03:55:54;102431.34;;;8.77;71.90
68075;BME280;54864;52.002;5.468;2022-11-13T03:56:59;102433.97;;;8.75;71.49
68075;BME280;54864;52.002;5.468;2022-11-13T03:58:12;102431.38;;;8.74;71.98
68075;BME280;54864;52.002;5.468;2022-11-13T03:59:21;102427.84;;;8.76;71.66
68075;BME280;54864;52.002;5.468;2022-11-13T04:00:23;102428.72;;;8.75;71.42
68075;BME280;54864;52.002;5.468;2022-11-13T04:01:24;102430.38;;;8.84;70.79
68075;BME280;54864;52.002;5.468;2022-11-13T04:02:32;102431.22;;;8.86;71.17
68075;BME280;54864;52.002;5.468;2022-11-13T04:03:33;102428.59;;;8.86;70.74
68075;BME280;54864;52.002;5.468;2022-11-13T04:04:38;102433.88;;;8.84;71.18
68075;BME280;54864;52.002;5.468;2022-11-13T04:05:41;102426.09;;;8.75;71.53
68075;BME280;54864;52.002;5.468;2022-11-13T04:06:47;102417.44;;;8.67;71.15
68075;BME280;54864;52.002;5.468;2022-11-13T04:07:52;102426.22;;;8.66;71.79
68075;BME280;54864;52.002;5.468;2022-11-13T04:08:58;102420.91;;;8.69;71.08
68075;BME280;54864;52.002;5.468;2022-11-13T04:10:04;102421.72;;;8.76;71.27
68075;BME280;54864;52.002;5.468;2022-11-13T04:11:16;102425.25;;;8.72;70.78
68075;BME280;54864;52.002;5.468;2022-11-13T04:12:18;102418.31;;;8.66;70.86
68075;BME280;54864;52.002;5.468;2022-11-13T04:13:26;102412.19;;;8.66;71.07
68075;BME280;54864;52.002;5.468;2022-11-13T04:14:30;102415.72;;;8.65;71.23
68075;BME280;54864;52.002;5.468;2022-11-13T04:15:34;102407.84;;;8.63;70.69
68075;BME280;54864;52.002;5.468;2022-11-13T04:16:38;102418.28;;;8.69;70.74
68075;BME280;54864;52.002;5.468;2022-11-13T04:17:46;102408.66;;;8.67;70.91
68075;BME280;54864;52.002;5.468;2022-11-13T04:18:48;102414.84;;;8.64;71.27
68075;BME280;54864;52.002;5.468;2022-11-13T04:19:53;102415.66;;;8.68;70.75
68075;BME280;54864;52.002;5.468;2022-11-13T04:20:58;102415.72;;;8.65;71.03
68075;BME280;54864;52.002;5.468;2022-11-13T04:22:08;102414.84;;;8.64;70.70
68075;BME280;54864;52.002;5.468;2022-11-13T04:23:11;102412.25;;;8.61;70.75
68075;BME280;54864;52.002;5.468;2022-11-13T04:24:25;102415.75;;;8.62;71.05
68075;BME280;54864;52.002;5.468;2022-11-13T04:25:27;102418.38;;;8.60;71.73
68075;BME280;54864;52.002;5.468;2022-11-13T04:26:32;102422.75;;;8.63;71.28
68075;BME280;54864;52.002;5.468;2022-11-13T04:27:37;102417.56;;;8.56;71.19
68075;BME280;54864;52.002;5.468;2022-11-13T04:28:41;102421.94;;;8.56;70.83
68075;BME280;54864;52.002;5.468;2022-11-13T04:29:43;102421.91;;;8.57;70.93
68075;BME280;54864;52.002;5.468;2022-11-13T04:31:04;102423.72;;;8.52;70.98
68075;BME280;54864;52.002;5.468;2022-11-13T04:32:09;102422.88;;;8.50;70.78
68075;BME280;54864;52.002;5.468;2022-11-13T04:33:14;102421.03;;;8.58;70.98
68075;BME280;54864;52.002;5.468;2022-11-13T04:34:16;102410.59;;;8.52;70.81
68075;BME280;54864;52.002;5.468;2022-11-13T04:35:25;102415.84;;;8.54;71.13
68075;BME280;54864;52.002;5.468;2022-11-13T04:36:25;102419.41;;;8.48;70.78
68075;BME280;54864;52.002;5.468;2022-11-13T04:37:35;102415.00;;;8.49;71.09
68075;BME280;54864;52.002;5.468;2022-11-13T04:38:36;102405.34;;;8.51;70.67
68075;BME280;54864;52.002;5.468;2022-11-13T04:39:38;102415.88;;;8.49;70.40
68075;BME280;54864;52.002;5.468;2022-11-13T04:40:42;102414.13;;;8.50;70.22
68075;BME280;54864;52.002;5.468;2022-11-13T04:41:45;102410.69;;;8.42;71.01
68075;BME280;54864;52.002;5.468;2022-11-13T04:43:09;102415.91;;;8.45;70.75
68075;BME280;54864;52.002;5.468;2022-11-13T04:44:13;102410.66;;;8.45;70.92
68075;BME280;54864;52.002;5.468;2022-11-13T04:45:18;102404.53;;;8.46;70.90
68075;BME280;54864;52.002;5.468;2022-11-13T04:46:36;102405.41;;;8.42;70.46
68075;BME280;54864;52.002;5.468;2022-11-13T04:47:42;102407.16;;;8.46;69.79
68075;BME280;54864;52.002;5.468;2022-11-13T04:48:52;102411.53;;;8.47;70.42
68075;BME280;54864;52.002;5.468;2022-11-13T04:49:57;102403.66;;;8.45;70.08
68075;BME280;54864;52.002;5.468;2022-11-13T04:51:02;102407.22;;;8.38;70.27
68075;BME280;54864;52.002;5.468;2022-11-13T04:52:14;102408.97;;;8.38;70.34
68075;BME280;54864;52.002;5.468;2022-11-13T04:53:17;102404.56;;;8.40;70.31
68075;BME280;54864;52.002;5.468;2022-11-13T04:54:22;102404.56;;;8.40;69.79
68075;BME280;54864;52.002;5.468;2022-11-13T04:55:31;102403.69;;;8.41;70.51
68075;BME280;54864;52.002;5.468;2022-11-13T04:56:42;102399.34;;;8.38;70.22
68075;BME280;54864;52.002;5.468;2022-11-13T04:57:47;102401.03;;;8.42;69.55
68075;BME280;54864;52.002;5.468;2022-11-13T04:58:59;102395.88;;;8.35;70.33
68075;BME280;54864;52.002;5.468;2022-11-13T05:00:10;102389.72;;;8.33;70.04
68075;BME280;54864;52.002;5.468;2022-11-13T05:01:27;102396.75;;;8.32;70.54
68075;BME280;54864;52.002;5.468;2022-11-13T05:02:29;102405.50;;;8.33;70.44
68075;BME280;54864;52.002;5.468;2022-11-13T05:03:39;102388.88;;;8.29;70.19
68075;BME280;54864;52.002;5.468;2022-11-13T05:04:44;102387.13;;;8.30;70.69
68075;BME280;54864;52.002;5.468;2022-11-13T05:05:52;102387.13;;;8.31;69.80
68075;BME280;54864;52.002;5.468;2022-11-13T05:06:56;102387.09;;;8.33;70.88
68075;BME280;54864;52.002;5.468;2022-11-13T05:07:59;102388.00;;;8.33;70.07
68075;BME280;54864;52.002;5.468;2022-11-13T05:08:59;102388.06;;;8.25;70.38
68075;BME280;54864;52.002;5.468;2022-11-13T05:10:09;102383.63;;;8.31;70.61
68075;BME280;54864;52.002;5.468;2022-11-13T05:11:11;102384.59;;;8.22;70.11
68075;BME280;54864;52.002;5.468;2022-11-13T05:12:21;102382.75;;;8.28;70.40
68075;BME280;54864;52.002;5.468;2022-11-13T05:13:24;102382.78;;;8.25;70.54
68075;BME280;54864;52.002;5.468;2022-11-13T05:14:33;102381.88;;;8.30;70.03
68075;BME280;54864;52.002;5.468;2022-11-13T05:15:41;102383.66;;;8.26;70.48
68075;BME280;54864;52.002;5.468;2022-11-13T05:16:48;102387.16;;;8.26;70.08
68075;BME280;54864;52.002;5.468;2022-11-13T05:17:52;102383.63;;;8.31;70.73
68075;BME280;54864;52.002;5.468;2022-11-13T05:18:57;102387.16;;;8.28;70.09
68075;BME280;54864;52.002;5.468;2022-11-13T05:20:02;102385.38;;;8.33;70.25
68075;BME280;54864;52.002;5.468;2022-11-13T05:21:11;102382.78;;;8.25;70.60
68075;BME280;54864;52.002;5.468;2022-11-13T05:22:17;102381.00;;;8.31;69.77
68075;BME280;54864;52.002;5.468;2022-11-13T05:23:22;102391.59;;;8.23;70.27
68075;BME280;54864;52.002;5.468;2022-11-13T05:24:23;102375.88;;;8.18;70.96
68075;BME280;54864;52.002;5.468;2022-11-13T05:25:36;102388.09;;;8.21;70.71
68075;BME280;54864;52.002;5.468;2022-11-13T05:28:00;102384.59;;;8.20;71.16
68075;BME280;54864;52.002;5.468;2022-11-13T05:29:04;102379.31;;;8.25;70.79
68075;BME280;54864;52.002;5.468;2022-11-13T05:30:10;102386.31;;;8.24;70.91
68075;BME280;54864;52.002;5.468;2022-11-13T05:31:23;102387.16;;;8.28;70.06
68075;BME280;54864;52.002;5.468;2022-11-13T05:32:31;102376.59;;;8.31;71.01
68075;BME280;54864;52.002;5.468;2022-11-13T05:33:40;102372.31;;;8.24;70.88
68075;BME280;54864;52.002;5.468;2022-11-13T05:34:43;102371.41;;;8.26;70.40
68075;BME280;54864;52.002;5.468;2022-11-13T05:35:51;102369.59;;;8.32;70.67
68075;BME280;54864;52.002;5.468;2022-11-13T05:36:55;102367.00;;;8.27;70.63
68075;BME280;54864;52.002;5.468;2022-11-13T05:37:59;102363.44;;;8.33;70.17
68075;BME280;54864;52.002;5.468;2022-11-13T05:39:23;102375.72;;;8.32;70.36
68075;BME280;54864;52.002;5.468;2022-11-13T05:40:31;102376.59;;;8.36;70.15
68075;BME280;54864;52.002;5.468;2022-11-13T05:41:35;102367.84;;;8.32;70.16
68075;BME280;54864;52.002;5.468;2022-11-13T05:42:41;102366.97;;;8.32;69.88
68075;BME280;54864;52.002;5.468;2022-11-13T05:43:42;102368.72;;;8.31;70.63
68075;BME280;54864;52.002;5.468;2022-11-13T05:44:49;102377.50;;;8.28;70.80
68075;BME280;54864;52.002;5.468;2022-11-13T05:46:04;102371.47;;;8.19;70.34
68075;BME280;54864;52.002;5.468;2022-11-13T05:47:10;102365.28;;;8.26;70.66
68075;BME280;54864;52.002;5.468;2022-11-13T05:48:20;102362.69;;;8.21;70.55
68075;BME280;54864;52.002;5.468;2022-11-13T05:49:22;102354.75;;;8.26;70.56
68075;BME280;54864;52.002;5.468;2022-11-13T05:50:25;102362.69;;;8.23;70.15
68075;BME280;54864;52.002;5.468;2022-11-13T05:51:31;102367.84;;;8.32;69.61
68075;BME280;54864;52.002;5.468;2022-11-13T05:52:45;102362.63;;;8.27;70.08
68075;BME280;54864;52.002;5.468;2022-11-13T05:53:49;102366.97;;;8.32;70.26
68075;BME280;54864;52.002;5.468;2022-11-13T05:54:56;102362.63;;;8.29;69.80
68075;BME280;54864;52.002;5.468;2022-11-13T05:56:04;102373.13;;;8.29;70.50
68075;BME280;54864;52.002;5.468;2022-11-13T05:57:30;102362.59;;;8.31;70.15
68075;BME280;54864;52.002;5.468;2022-11-13T05:58:33;102366.09;;;8.34;69.98
68075;BME280;54864;52.002;5.468;2022-11-13T05:59:43;102366.09;;;8.31;69.84
68075;BME280;54864;52.002;5.468;2022-11-13T06:00:47;102364.34;;;8.35;69.58
68075;BME280;54864;52.002;5.468;2022-11-13T06:01:52;102360.91;;;8.23;70.34
68075;BME280;54864;52.002;5.468;2022-11-13T06:02:53;102353.00;;;8.26;70.38
68075;BME280;54864;52.002;5.468;2022-11-13T06:03:59;102352.97;;;8.30;70.14
68075;BME280;54864;52.002;5.468;2022-11-13T06:05:06;102346.78;;;8.38;69.73
68075;BME280;54864;52.002;5.468;2022-11-13T06:07:27;102347.75;;;8.26;69.86
68075;BME280;54864;52.002;5.468;2022-11-13T06:08:36;102345.13;;;8.26;70.56
68075;BME280;54864;52.002;5.468;2022-11-13T06:09:38;102352.13;;;8.26;70.20
68075;BME280;54864;52.002;5.468;2022-11-13T06:10:41;102353.00;;;8.26;70.17
68075;BME280;54864;52.002;5.468;2022-11-13T06:11:43;102346.81;;;8.34;69.26
68075;BME280;54864;52.002;5.468;2022-11-13T06:12:58;102339.03;;;8.23;69.45